Time;durP1;ratioP1;P1;durP2;ratioP2;P2;SDS_P1;SDS_P2;PMS_P1;PMS_P2;Temp;Humidity;BMP_temperature;BMP_pressure;BME280_temperature;BME280_humidity;BME280_pressure;Samples;Min_cycle;Max_cycle;Signal;HPM_P1;HPM_P2
2023/01/08 00:00:10;;;;;;;10.03;6.97;;;;;;;;;;5008615;28;20230;-25
2023/01/08 00:06:06;;;;;;;10.57;7.30;;;;;;;;;;5014820;28;20202;-26
2023/01/08 00:09:16;;;;;;;9.13;6.27;;;;;;;;;;5013315;28;20252;-24
2023/01/08 00:12:18;;;;;;;9.20;6.87;;;;;;;;;;5014102;28;20238;-26
2023/01/08 00:30:05;;;;;;;8.97;6.67;;;;;;;;;;5100393;28;20223;-32
2023/01/08 00:36:01;;;;;;;8.77;6.70;;;;;;;;;;5087559;28;20264;-32
2023/01/08 00:42:15;;;;;;;8.87;6.30;;;;;;;;;;5075239;28;20220;-35
2023/01/08 00:45:14;;;;;;;9.43;5.97;;;;;;;;;;5081730;28;20224;-33
2023/01/08 01:20:01;;;;;;;7.17;4.97;;;;;;;;;;5044937;28;20278;-25
2023/01/08 01:26:12;;;;;;;9.23;5.80;;;;;;;;;;5031195;28;20341;-27
2023/01/08 01:59:19;;;;;;;12.30;5.63;;;;;;;;;;4945899;29;20205;-24
2023/01/08 02:27:00;;;;;;;7.13;5.37;;;;;;;;;;4984288;28;20235;-26
2023/01/08 02:32:49;;;;;;;7.87;5.43;;;;;;;;;;4805415;27;9701382;-37
2023/01/08 06:16:42;;;;;;;6.00;4.17;;;;;;;;;;5032473;28;20248;-27
2023/01/08 06:26:31;;;;;;;6.60;4.57;;;;;;;;;;5023676;28;20213;-27
2023/01/08 07:04:25;;;;;;;5.87;4.37;;;;;;;;;;5026996;28;20253;-26
2023/01/08 07:10:19;;;;;;;4.80;4.23;;;;;;;;;;4960401;28;20190;-26
2023/01/08 07:13:23;;;;;;;6.37;5.03;;;;;;;;;;5039023;23;20266;-26
2023/01/08 07:16:08;;;;;;;6.23;4.77;;;;;;;;;;5151521;22;20233;-26
2023/01/08 07:19:09;;;;;;;6.83;5.73;;;;;;;;;;5035519;28;20265;-25
2023/01/08 07:22:08;;;;;;;8.07;5.30;;;;;;;;;;5119970;22;20297;-27
2023/01/08 07:28:01;;;;;;;5.60;4.40;;;;;;;;;;5029343;28;20723;-24
2023/01/08 07:31:01;;;;;;;6.50;5.00;;;;;;;;;;5025398;28;20203;-25
2023/01/08 07:33:50;;;;;;;6.40;4.23;;;;;;;;;;5035702;28;20203;-26
2023/01/08 07:40:10;;;;;;;6.23;5.10;;;;;;;;;;5025995;28;20215;-25
2023/01/08 07:43:08;;;;;;;5.80;4.77;;;;;;;;;;5034427;28;20223;-29
2023/01/08 07:46:24;;;;;;;6.13;4.97;;;;;;;;;;5019970;28;20289;-27
2023/01/08 07:55:17;;;;;;;5.63;4.70;;;;;;;;;;5028273;28;20191;-28
2023/01/08 08:01:13;;;;;;;5.87;4.23;;;;;;;;;;5024735;28;20211;-24
2023/01/08 08:06:15;;;;;;;7.80;5.60;;;;;;;;;;5002919;28;20226;-31
2023/01/08 08:08:43;;;;;;;5.53;4.77;;;;;;;;;;5011548;28;20225;-31
2023/01/08 08:11:10;;;;;;;6.93;4.63;;;;;;;;;;5005722;28;20227;-33
2023/01/08 08:13:41;;;;;;;6.47;4.70;;;;;;;;;;5003811;28;20222;-29
2023/01/08 08:16:08;;;;;;;6.87;5.03;;;;;;;;;;5005749;28;20211;-33
2023/01/08 08:18:35;;;;;;;6.33;5.07;;;;;;;;;;5012891;28;20236;-29
2023/01/08 08:21:03;;;;;;;6.03;4.03;;;;;;;;;;5012864;28;20227;-28
2023/01/08 08:23:31;;;;;;;5.57;4.70;;;;;;;;;;5001220;28;20219;-29
2023/01/08 08:25:58;;;;;;;7.00;4.83;;;;;;;;;;5005521;28;20203;-30
2023/01/08 08:28:25;;;;;;;5.40;4.47;;;;;;;;;;5005079;28;20210;-30
2023/01/08 08:30:52;;;;;;;6.23;4.27;;;;;;;;;;5002121;28;20224;-29
2023/01/08 08:33:20;;;;;;;4.90;4.27;;;;;;;;;;5010020;28;20215;-28
2023/01/08 08:35:49;;;;;;;4.37;3.97;;;;;;;;;;5003988;28;20273;-32
2023/01/08 08:38:16;;;;;;;6.90;4.23;;;;;;;;;;5000177;28;20203;-32
2023/01/08 08:40:45;;;;;;;6.00;4.73;;;;;;;;;;5009668;28;20207;-28
2023/01/08 08:43:12;;;;;;;6.20;4.60;;;;;;;;;;5001684;28;20203;-32
2023/01/08 08:45:39;;;;;;;6.30;5.00;;;;;;;;;;4993768;28;20212;-30
2023/01/08 08:48:06;;;;;;;6.57;4.77;;;;;;;;;;5010134;28;20203;-27
2023/01/08 08:50:34;;;;;;;8.53;5.27;;;;;;;;;;5006928;28;20307;-30
2023/01/08 08:53:01;;;;;;;7.30;5.17;;;;;;;;;;4999797;28;20235;-32
2023/01/08 08:55:28;;;;;;;6.53;5.10;;;;;;;;;;5008442;28;20203;-31
2023/01/08 08:58:02;;;;;;;7.00;4.60;;;;;;;;;;5003205;28;20200;-30
2023/01/08 09:00:29;;;;;;;6.47;4.87;;;;;;;;;;5007846;28;20215;-28
2023/01/08 09:02:56;;;;;;;5.30;4.27;;;;;;;;;;5011387;28;20191;-29
2023/01/08 09:05:23;;;;;;;6.70;4.97;;;;;;;;;;5011692;28;20211;-27
2023/01/08 09:07:51;;;;;;;6.10;4.60;;;;;;;;;;5005192;28;20210;-32
2023/01/08 09:10:18;;;;;;;7.07;5.40;;;;;;;;;;5010380;28;20222;-29
2023/01/08 09:12:45;;;;;;;7.47;5.50;;;;;;;;;;5006567;28;20234;-29
2023/01/08 09:15:14;;;;;;;5.40;4.83;;;;;;;;;;5003395;28;20215;-32
2023/01/08 09:17:41;;;;;;;7.80;4.87;;;;;;;;;;5009354;28;20215;-31
2023/01/08 09:20:08;;;;;;;7.57;5.33;;;;;;;;;;5010983;28;20199;-31
2023/01/08 09:22:35;;;;;;;13.17;6.43;;;;;;;;;;5002950;28;20227;-29
2023/01/08 09:25:02;;;;;;;11.10;6.93;;;;;;;;;;5005079;28;20203;-30
2023/01/08 09:27:29;;;;;;;9.50;6.40;;;;;;;;;;5005702;28;20218;-29
2023/01/08 09:29:57;;;;;;;10.50;6.27;;;;;;;;;;5007724;28;20203;-29
2023/01/08 09:32:25;;;;;;;10.07;7.07;;;;;;;;;;5010388;28;20234;-34
2023/01/08 09:34:52;;;;;;;9.80;6.37;;;;;;;;;;5011314;28;20214;-32
2023/01/08 09:37:19;;;;;;;12.53;6.60;;;;;;;;;;5001517;28;20211;-29
2023/01/08 09:39:46;;;;;;;10.27;6.70;;;;;;;;;;5010006;28;20195;-32
2023/01/08 09:42:14;;;;;;;9.77;7.30;;;;;;;;;;5010882;28;20231;-31
2023/01/08 09:44:44;;;;;;;11.73;6.43;;;;;;;;;;5001324;28;20217;-32
2023/01/08 09:47:21;;;;;;;8.67;5.30;;;;;;;;;;5009995;28;20207;-27
2023/01/08 09:49:50;;;;;;;6.40;5.10;;;;;;;;;;5010383;28;20211;-28
2023/01/08 09:52:17;;;;;;;8.07;5.70;;;;;;;;;;5004321;28;20229;-28
2023/01/08 09:54:44;;;;;;;10.17;6.53;;;;;;;;;;5009738;28;20199;-29
2023/01/08 09:57:13;;;;;;;9.07;6.13;;;;;;;;;;5006277;28;20206;-32
2023/01/08 09:59:40;;;;;;;7.57;5.90;;;;;;;;;;5007709;28;20215;-31
2023/01/08 10:02:12;;;;;;;8.33;6.57;;;;;;;;;;5009921;28;20216;-29
2023/01/08 10:04:39;;;;;;;14.90;8.23;;;;;;;;;;5009255;28;20622;-30
2023/01/08 10:07:12;;;;;;;17.67;10.77;;;;;;;;;;5001278;28;20203;-31
2023/01/08 10:09:40;;;;;;;12.77;8.60;;;;;;;;;;5009326;28;20207;-30
2023/01/08 10:12:08;;;;;;;10.00;7.20;;;;;;;;;;5010649;28;20240;-30
2023/01/08 10:14:36;;;;;;;9.83;7.17;;;;;;;;;;4993666;28;20212;-29
2023/01/08 10:17:08;;;;;;;10.23;6.60;;;;;;;;;;5004426;28;20207;-29
2023/01/08 10:19:36;;;;;;;10.37;7.40;;;;;;;;;;5009880;28;20548;-30
2023/01/08 10:22:03;;;;;;;11.03;8.50;;;;;;;;;;5006994;28;20215;-29
2023/01/08 10:24:36;;;;;;;11.60;8.00;;;;;;;;;;5003379;28;20216;-31
2023/01/08 10:27:07;;;;;;;10.03;7.03;;;;;;;;;;5004265;28;20246;-31
2023/01/08 10:29:34;;;;;;;13.23;8.67;;;;;;;;;;5001552;28;20222;-29
2023/01/08 10:32:08;;;;;;;11.50;8.13;;;;;;;;;;5009701;28;20215;-27
2023/01/08 10:34:40;;;;;;;9.33;7.23;;;;;;;;;;5010569;28;20302;-31
2023/01/08 10:37:14;;;;;;;8.47;7.10;;;;;;;;;;4997431;28;20207;-29
2023/01/08 10:39:46;;;;;;;9.43;7.13;;;;;;;;;;5009396;28;20195;-30
2023/01/08 10:42:14;;;;;;;10.77;7.10;;;;;;;;;;5010545;28;20227;-34
2023/01/08 10:44:47;;;;;;;9.63;8.10;;;;;;;;;;4990582;28;20219;-33
2023/01/08 10:47:17;;;;;;;10.23;7.27;;;;;;;;;;5010803;28;20318;-30
2023/01/08 10:49:45;;;;;;;11.77;7.53;;;;;;;;;;5010929;28;20696;-27
2023/01/08 10:52:23;;;;;;;10.33;7.93;;;;;;;;;;5007032;28;20235;-31
2023/01/08 10:54:52;;;;;;;15.03;9.63;;;;;;;;;;5003593;28;20207;-31
2023/01/08 10:57:23;;;;;;;16.30;11.13;;;;;;;;;;5014600;28;20199;-31
2023/01/08 10:59:50;;;;;;;15.00;10.13;;;;;;;;;;5002111;28;20208;-30
2023/01/08 11:02:22;;;;;;;14.03;10.47;;;;;;;;;;5009403;28;20218;-29
2023/01/08 11:04:51;;;;;;;11.57;8.97;;;;;;;;;;4995059;28;20311;-32
2023/01/08 11:07:20;;;;;;;13.67;8.97;;;;;;;;;;5004664;28;20673;-29
2023/01/08 11:09:50;;;;;;;13.27;8.87;;;;;;;;;;5004409;28;20211;-29
2023/01/08 11:12:29;;;;;;;13.77;9.40;;;;;;;;;;5012812;28;20697;-31
2023/01/08 11:14:56;;;;;;;15.90;9.23;;;;;;;;;;5009717;28;20202;-27
2023/01/08 11:17:25;;;;;;;10.63;7.63;;;;;;;;;;5012365;28;20207;-33
2023/01/08 11:19:52;;;;;;;12.97;9.77;;;;;;;;;;5012456;28;20536;-31
2023/01/08 11:22:20;;;;;;;12.60;9.83;;;;;;;;;;5006889;28;20224;-32
2023/01/08 11:24:48;;;;;;;32.33;18.70;;;;;;;;;;5008824;28;20207;-31
2023/01/08 11:27:17;;;;;;;16.07;9.80;;;;;;;;;;5013974;28;21146;-29
2023/01/08 11:29:47;;;;;;;11.77;8.93;;;;;;;;;;5003937;28;20295;-28
2023/01/08 11:32:35;;;;;;;12.10;8.47;;;;;;;;;;5011772;28;20219;-33
2023/01/08 11:35:04;;;;;;;11.93;9.13;;;;;;;;;;5006494;28;20195;-31
2023/01/08 11:37:33;;;;;;;14.63;9.20;;;;;;;;;;5004031;28;20203;-31
2023/01/08 11:40:00;;;;;;;14.10;9.37;;;;;;;;;;5011139;28;20214;-31
2023/01/08 11:42:34;;;;;;;12.47;9.27;;;;;;;;;;5007754;28;20233;-31
2023/01/08 11:45:12;;;;;;;64.00;30.07;;;;;;;;;;5005656;28;20203;-29
2023/01/08 11:47:49;;;;;;;16.83;10.47;;;;;;;;;;5010126;28;20203;-29
2023/01/08 11:50:19;;;;;;;13.10;8.97;;;;;;;;;;5008336;28;20215;-31
2023/01/08 11:52:52;;;;;;;11.83;8.93;;;;;;;;;;5007572;28;20227;-28
2023/01/08 11:55:24;;;;;;;11.10;8.10;;;;;;;;;;5004497;28;20204;-32
2023/01/08 11:58:00;;;;;;;12.40;9.17;;;;;;;;;;5002319;28;20206;-32
2023/01/08 12:00:35;;;;;;;10.53;8.23;;;;;;;;;;5001410;28;20211;-34
2023/01/08 12:03:03;;;;;;;11.57;8.30;;;;;;;;;;5011106;28;20202;-31
2023/01/08 12:05:31;;;;;;;10.83;7.83;;;;;;;;;;5010392;28;20302;-28
2023/01/08 12:08:04;;;;;;;7.77;6.50;;;;;;;;;;5012948;28;20203;-31
2023/01/08 12:10:37;;;;;;;9.00;6.33;;;;;;;;;;5011092;28;20217;-27
2023/01/08 12:13:09;;;;;;;7.43;5.97;;;;;;;;;;4996370;28;20239;-30
2023/01/08 12:15:41;;;;;;;9.40;5.70;;;;;;;;;;5004853;28;20218;-31
2023/01/08 12:18:20;;;;;;;6.70;5.70;;;;;;;;;;5004721;28;20199;-28
2023/01/08 12:20:50;;;;;;;8.10;6.63;;;;;;;;;;5004963;28;20203;-30
2023/01/08 12:23:26;;;;;;;8.57;6.40;;;;;;;;;;5002401;28;20203;-32
2023/01/08 12:25:58;;;;;;;10.60;7.63;;;;;;;;;;5008043;28;20199;-29
2023/01/08 12:28:37;;;;;;;9.70;7.60;;;;;;;;;;5002614;28;20207;-30
2023/01/08 12:31:20;;;;;;;11.77;8.70;;;;;;;;;;5008738;28;20229;-30
2023/01/08 12:33:50;;;;;;;12.47;8.43;;;;;;;;;;5005945;28;20273;-30
2023/01/08 12:36:19;;;;;;;12.83;8.53;;;;;;;;;;5006676;28;20234;-30
2023/01/08 12:38:51;;;;;;;9.60;7.93;;;;;;;;;;5010178;28;20207;-29
2023/01/08 12:41:19;;;;;;;10.63;8.27;;;;;;;;;;5010637;28;20234;-30
2023/01/08 12:43:50;;;;;;;13.10;8.27;;;;;;;;;;4999669;28;20282;-27
2023/01/08 12:46:19;;;;;;;9.27;6.93;;;;;;;;;;5000477;28;20207;-29
2023/01/08 12:48:48;;;;;;;11.27;8.13;;;;;;;;;;5006839;28;20203;-29
2023/01/08 12:51:19;;;;;;;11.57;7.73;;;;;;;;;;5009968;28;20227;-30
2023/01/08 12:53:54;;;;;;;11.20;8.50;;;;;;;;;;5005943;28;20223;-32
2023/01/08 12:56:26;;;;;;;12.67;8.40;;;;;;;;;;5003046;28;20207;-29
2023/01/08 12:59:02;;;;;;;12.33;7.40;;;;;;;;;;4992922;28;20211;-33
2023/01/08 13:01:36;;;;;;;10.67;7.67;;;;;;;;;;5007900;28;20230;-28
2023/01/08 13:04:04;;;;;;;9.23;7.60;;;;;;;;;;5004295;28;20218;-28
2023/01/08 13:06:32;;;;;;;11.77;7.80;;;;;;;;;;5011000;28;20207;-32
2023/01/08 13:09:00;;;;;;;9.37;7.17;;;;;;;;;;4999699;28;20199;-29
2023/01/08 13:11:29;;;;;;;11.80;8.03;;;;;;;;;;5006837;28;20223;-31
2023/01/08 13:14:00;;;;;;;10.57;7.90;;;;;;;;;;4996406;28;20592;-34
2023/01/08 13:16:28;;;;;;;12.03;8.80;;;;;;;;;;5003249;28;20207;-31
2023/01/08 13:18:57;;;;;;;11.40;8.73;;;;;;;;;;5006988;28;20211;-28
2023/01/08 13:21:29;;;;;;;10.03;7.67;;;;;;;;;;5003735;28;20228;-29
2023/01/08 13:24:00;;;;;;;10.37;7.63;;;;;;;;;;5010270;28;20214;-31
2023/01/08 13:26:30;;;;;;;9.77;7.77;;;;;;;;;;5010552;28;20261;-30
2023/01/08 13:29:06;;;;;;;8.53;6.90;;;;;;;;;;4996703;28;20208;-31
2023/01/08 13:31:39;;;;;;;9.27;6.47;;;;;;;;;;5007045;28;20231;-33
2023/01/08 13:34:20;;;;;;;9.43;7.20;;;;;;;;;;5010849;28;20219;-28
2023/01/08 13:36:56;;;;;;;9.70;6.87;;;;;;;;;;5010851;28;20192;-28
2023/01/08 13:39:23;;;;;;;11.10;8.37;;;;;;;;;;5005108;28;20203;-31
2023/01/08 13:41:58;;;;;;;11.40;8.47;;;;;;;;;;5011195;28;20227;-32
2023/01/08 13:44:27;;;;;;;9.13;7.07;;;;;;;;;;5005161;28;20209;-30
2023/01/08 13:46:55;;;;;;;11.87;7.80;;;;;;;;;;5000401;28;20298;-33
2023/01/08 13:49:27;;;;;;;10.93;8.13;;;;;;;;;;5005839;28;20207;-32
2023/01/08 13:51:54;;;;;;;15.23;10.00;;;;;;;;;;5009111;28;20233;-31
2023/01/08 13:54:25;;;;;;;35.63;20.50;;;;;;;;;;5010593;28;20230;-32
2023/01/08 13:56:54;;;;;;;30.20;19.73;;;;;;;;;;5004075;28;20211;-29
2023/01/08 13:59:25;;;;;;;24.27;15.67;;;;;;;;;;4989458;28;20211;-33
2023/01/08 14:01:53;;;;;;;21.97;13.57;;;;;;;;;;5002035;28;20227;-28
2023/01/08 14:04:21;;;;;;;14.17;9.53;;;;;;;;;;5010393;28;20210;-31
2023/01/08 14:06:50;;;;;;;12.93;9.17;;;;;;;;;;4998026;28;20211;-31
2023/01/08 14:09:20;;;;;;;12.60;8.20;;;;;;;;;;5009395;28;20204;-29
2023/01/08 14:11:49;;;;;;;9.90;7.20;;;;;;;;;;5001548;28;20226;-29
2023/01/08 14:14:17;;;;;;;5.93;5.10;;;;;;;;;;4992992;28;20744;-30
2023/01/08 14:16:44;;;;;;;5.20;3.47;;;;;;;;;;5001501;28;20238;-27
2023/01/08 14:19:13;;;;;;;5.27;3.63;;;;;;;;;;5010814;28;20290;-33
2023/01/08 14:21:41;;;;;;;7.47;5.57;;;;;;;;;;5011761;28;20705;-28
2023/01/08 14:24:15;;;;;;;12.83;7.33;;;;;;;;;;5002220;28;20568;-30
2023/01/08 14:26:45;;;;;;;7.60;5.53;;;;;;;;;;5009558;28;20203;-27
2023/01/08 14:29:14;;;;;;;11.50;6.70;;;;;;;;;;5006224;28;20215;-28
2023/01/08 14:31:46;;;;;;;4.57;4.13;;;;;;;;;;5003778;28;20285;-27
2023/01/08 14:34:14;;;;;;;4.87;4.07;;;;;;;;;;5012996;28;20226;-30
2023/01/08 14:36:41;;;;;;;6.50;3.53;;;;;;;;;;5006261;28;20211;-27
2023/01/08 14:39:12;;;;;;;5.17;4.37;;;;;;;;;;5012516;28;20207;-31
2023/01/08 14:44:25;;;;;;;5.17;4.67;;;;;;;;;;5010250;28;20214;-32
2023/01/08 14:46:53;;;;;;;5.60;4.40;;;;;;;;;;5005813;28;20200;-29
2023/01/08 14:49:23;;;;;;;5.50;4.57;;;;;;;;;;5010124;28;20203;-32
2023/01/08 14:51:50;;;;;;;4.83;4.30;;;;;;;;;;5005813;28;20230;-31
2023/01/08 14:54:22;;;;;;;5.77;4.90;;;;;;;;;;5004974;28;20234;-28
2023/01/08 14:56:49;;;;;;;8.07;5.13;;;;;;;;;;5002348;28;20230;-27
2023/01/08 14:59:20;;;;;;;7.77;5.30;;;;;;;;;;5005360;28;20203;-33
2023/01/08 15:01:51;;;;;;;7.23;5.67;;;;;;;;;;5004765;28;20227;-33
2023/01/08 15:04:19;;;;;;;7.77;5.47;;;;;;;;;;5011218;28;20212;-30
2023/01/08 15:06:47;;;;;;;7.40;5.20;;;;;;;;;;5005611;28;20199;-29
2023/01/08 15:09:27;;;;;;;9.63;6.43;;;;;;;;;;5005869;28;20211;-30
2023/01/08 15:11:55;;;;;;;12.63;7.27;;;;;;;;;;4999195;28;20227;-33
2023/01/08 15:14:24;;;;;;;10.53;7.20;;;;;;;;;;4999841;28;20238;-30
2023/01/08 15:16:53;;;;;;;12.27;8.27;;;;;;;;;;5009454;28;20211;-29
2023/01/08 15:19:24;;;;;;;12.90;7.67;;;;;;;;;;5008384;28;20208;-32
2023/01/08 15:21:53;;;;;;;7.53;5.90;;;;;;;;;;4990316;28;20236;-29
2023/01/08 15:24:23;;;;;;;8.97;6.30;;;;;;;;;;4994030;28;20214;-33
2023/01/08 15:26:52;;;;;;;11.13;6.37;;;;;;;;;;5009920;28;20184;-31
2023/01/08 15:29:20;;;;;;;8.90;6.80;;;;;;;;;;4991449;28;20200;-32
2023/01/08 15:31:48;;;;;;;11.60;7.00;;;;;;;;;;5001792;28;20225;-31
2023/01/08 15:34:16;;;;;;;8.83;7.07;;;;;;;;;;5009297;28;20226;-31
2023/01/08 15:36:43;;;;;;;8.30;6.03;;;;;;;;;;5010023;28;20457;-30
2023/01/08 15:39:10;;;;;;;7.40;5.43;;;;;;;;;;4998835;28;20204;-32
2023/01/08 15:44:25;;;;;;;8.23;5.13;;;;;;;;;;5008254;28;20301;-28
2023/01/08 15:46:52;;;;;;;6.93;5.20;;;;;;;;;;5014263;28;20203;-32
2023/01/08 15:49:19;;;;;;;6.23;5.20;;;;;;;;;;5013379;28;20681;-27
2023/01/08 15:51:48;;;;;;;10.77;7.03;;;;;;;;;;5008513;28;20302;-30
2023/01/08 15:54:16;;;;;;;8.80;5.47;;;;;;;;;;5006869;28;20231;-31
2023/01/08 15:56:43;;;;;;;8.23;5.00;;;;;;;;;;5012095;28;20203;-28
2023/01/08 15:59:10;;;;;;;7.63;5.10;;;;;;;;;;4995771;28;20204;-32
2023/01/08 16:01:39;;;;;;;11.60;6.57;;;;;;;;;;5002719;28;20266;-28
2023/01/08 16:04:06;;;;;;;9.70;6.87;;;;;;;;;;5011748;28;20208;-29
2023/01/08 16:06:34;;;;;;;12.43;7.93;;;;;;;;;;5007126;28;20212;-28
2023/01/08 16:09:02;;;;;;;11.77;8.43;;;;;;;;;;5006451;28;20295;-29
2023/01/08 16:11:29;;;;;;;55.93;24.20;;;;;;;;;;5011985;28;20230;-29
2023/01/08 16:13:56;;;;;;;23.10;12.37;;;;;;;;;;5002443;28;20219;-27
2023/01/08 16:16:23;;;;;;;19.57;11.20;;;;;;;;;;5004044;28;20208;-27
2023/01/08 16:18:52;;;;;;;14.23;9.10;;;;;;;;;;5011653;28;20207;-29
2023/01/08 16:21:19;;;;;;;13.00;9.57;;;;;;;;;;5008311;28;20251;-32
2023/01/08 16:23:46;;;;;;;9.43;7.90;;;;;;;;;;5002090;28;20666;-33
2023/01/08 16:26:14;;;;;;;17.10;9.93;;;;;;;;;;5011517;28;20207;-33
2023/01/08 16:28:42;;;;;;;14.70;9.57;;;;;;;;;;4997937;28;20230;-31
2023/01/08 16:31:09;;;;;;;17.40;8.60;;;;;;;;;;4999185;28;20239;-32
2023/01/08 16:33:36;;;;;;;10.50;7.03;;;;;;;;;;5012206;28;20203;-31
2023/01/08 16:36:06;;;;;;;13.90;8.33;;;;;;;;;;5011888;28;20199;-29
2023/01/08 16:38:33;;;;;;;12.93;7.77;;;;;;;;;;5000630;28;20216;-29
2023/01/08 16:41:00;;;;;;;10.77;8.47;;;;;;;;;;5003933;28;20227;-30
2023/01/08 16:43:28;;;;;;;8.57;5.97;;;;;;;;;;5002592;28;20222;-30
2023/01/08 16:45:55;;;;;;;12.07;8.37;;;;;;;;;;5010645;28;20210;-31
2023/01/08 16:48:23;;;;;;;9.63;6.60;;;;;;;;;;5012456;28;20209;-31
2023/01/08 16:50:50;;;;;;;8.13;6.73;;;;;;;;;;5005040;28;20231;-32
2023/01/08 16:53:20;;;;;;;8.20;5.87;;;;;;;;;;5007902;28;20204;-28
2023/01/08 16:55:47;;;;;;;9.73;6.57;;;;;;;;;;5005747;28;20223;-29
2023/01/08 16:58:15;;;;;;;9.23;6.63;;;;;;;;;;5006916;28;20211;-30
2023/01/08 17:00:42;;;;;;;10.57;6.50;;;;;;;;;;5003208;28;20257;-32
2023/01/08 17:03:09;;;;;;;9.67;6.90;;;;;;;;;;5005905;28;20243;-31
2023/01/08 17:05:36;;;;;;;13.03;9.20;;;;;;;;;;4998295;28;20218;-30
2023/01/08 17:08:04;;;;;;;25.73;15.43;;;;;;;;;;5009612;28;20214;-30
2023/01/08 17:10:32;;;;;;;14.73;8.03;;;;;;;;;;5009871;28;20207;-28
2023/01/08 17:13:09;;;;;;;12.60;8.40;;;;;;;;;;4994929;28;20403;-29
2023/01/08 17:15:37;;;;;;;11.07;7.73;;;;;;;;;;5008920;28;20234;-31
2023/01/08 17:18:10;;;;;;;8.57;6.83;;;;;;;;;;5011568;28;20199;-26
2023/01/08 17:20:37;;;;;;;7.80;6.17;;;;;;;;;;5011229;28;20289;-28
2023/01/08 17:23:05;;;;;;;6.73;5.70;;;;;;;;;;4998889;28;20207;-31
2023/01/08 17:25:33;;;;;;;17.00;13.20;;;;;;;;;;5006937;28;20218;-31
2023/01/08 17:28:00;;;;;;;28.47;20.30;;;;;;;;;;5000143;28;20223;-31
2023/01/08 17:30:27;;;;;;;20.50;14.13;;;;;;;;;;5002531;28;20214;-31
2023/01/08 17:32:54;;;;;;;9.83;8.23;;;;;;;;;;5007657;28;20871;-31
2023/01/08 17:35:22;;;;;;;8.50;6.57;;;;;;;;;;5007992;28;20229;-29
2023/01/08 17:37:49;;;;;;;9.00;6.57;;;;;;;;;;4998137;28;20204;-29
2023/01/08 17:40:16;;;;;;;18.00;13.30;;;;;;;;;;5004841;28;20203;-28
2023/01/08 17:42:44;;;;;;;15.10;11.07;;;;;;;;;;5003563;28;20222;-33
2023/01/08 17:45:12;;;;;;;16.63;12.00;;;;;;;;;;5003347;28;20214;-28
2023/01/08 17:47:39;;;;;;;12.30;9.07;;;;;;;;;;5007349;28;20207;-32
2023/01/08 17:50:06;;;;;;;11.53;8.97;;;;;;;;;;5008578;28;20211;-28
2023/01/08 17:52:33;;;;;;;11.27;8.13;;;;;;;;;;5005644;28;20576;-31
2023/01/08 17:55:00;;;;;;;7.50;6.37;;;;;;;;;;5003195;28;20250;-31
2023/01/08 17:57:30;;;;;;;9.00;7.17;;;;;;;;;;5008054;28;20207;-29
2023/01/08 17:59:59;;;;;;;9.47;6.00;;;;;;;;;;5009730;28;20293;-27
2023/01/08 18:02:26;;;;;;;6.77;5.20;;;;;;;;;;5011995;28;20227;-27
2023/01/08 18:04:53;;;;;;;7.80;5.70;;;;;;;;;;5008322;28;20203;-28
2023/01/08 18:07:22;;;;;;;6.50;5.00;;;;;;;;;;5003939;28;20204;-33
2023/01/08 18:09:51;;;;;;;11.33;5.47;;;;;;;;;;5000114;28;20204;-30
2023/01/08 18:12:18;;;;;;;6.77;5.10;;;;;;;;;;5007740;28;20223;-29
2023/01/08 18:14:45;;;;;;;9.17;5.73;;;;;;;;;;5001791;28;20230;-32
2023/01/08 18:17:14;;;;;;;8.73;5.70;;;;;;;;;;5004411;28;20229;-31
2023/01/08 18:19:41;;;;;;;12.63;8.60;;;;;;;;;;5008678;28;20207;-30
2023/01/08 18:22:09;;;;;;;11.17;7.50;;;;;;;;;;5006861;28;20223;-32
2023/01/08 18:24:36;;;;;;;11.47;7.27;;;;;;;;;;5005058;28;20204;-29
2023/01/08 18:27:03;;;;;;;9.60;6.23;;;;;;;;;;5009171;28;20241;-28
2023/01/08 18:29:30;;;;;;;23.30;14.80;;;;;;;;;;4991927;28;20214;-30
2023/01/08 18:31:57;;;;;;;33.60;18.90;;;;;;;;;;5003598;28;20227;-31
2023/01/08 18:34:26;;;;;;;18.53;12.27;;;;;;;;;;5006401;28;20231;-30
2023/01/08 18:36:53;;;;;;;10.47;6.77;;;;;;;;;;4999929;28;20257;-29
2023/01/08 18:39:21;;;;;;;8.20;6.03;;;;;;;;;;5005385;28;20230;-31
2023/01/08 18:44:33;;;;;;;6.77;4.97;;;;;;;;;;4998309;28;20209;-32
2023/01/08 18:47:00;;;;;;;8.20;5.83;;;;;;;;;;5005501;28;20199;-32
2023/01/08 18:49:28;;;;;;;8.13;6.10;;;;;;;;;;5005380;28;20211;-27
2023/01/08 18:51:55;;;;;;;9.23;6.93;;;;;;;;;;4993922;28;20231;-31
2023/01/08 18:54:23;;;;;;;10.50;7.00;;;;;;;;;;5004860;28;20199;-32
2023/01/08 18:56:50;;;;;;;9.17;5.87;;;;;;;;;;5006573;28;20211;-30
2023/01/08 18:59:18;;;;;;;6.67;5.10;;;;;;;;;;4999098;28;20476;-28
2023/01/08 19:01:45;;;;;;;7.73;5.80;;;;;;;;;;5005678;28;20227;-29
2023/01/08 19:04:15;;;;;;;9.10;6.33;;;;;;;;;;5006428;28;20226;-29
2023/01/08 19:06:44;;;;;;;8.30;5.63;;;;;;;;;;4994137;28;20218;-25
2023/01/08 19:09:11;;;;;;;7.93;5.23;;;;;;;;;;5004313;28;20211;-31
2023/01/08 19:11:38;;;;;;;8.37;5.90;;;;;;;;;;5006544;28;20296;-28
2023/01/08 19:14:05;;;;;;;5.23;4.07;;;;;;;;;;5003937;28;20302;-28
2023/01/08 19:16:32;;;;;;;7.47;5.40;;;;;;;;;;5007429;28;20227;-33
2023/01/08 19:18:59;;;;;;;8.20;6.53;;;;;;;;;;5011397;28;20207;-27
2023/01/08 19:21:26;;;;;;;7.80;5.90;;;;;;;;;;5013508;28;20257;-33
2023/01/08 19:23:55;;;;;;;8.83;6.23;;;;;;;;;;5005920;28;20203;-32
2023/01/08 19:26:22;;;;;;;8.10;5.90;;;;;;;;;;5007445;28;20215;-32
2023/01/08 19:28:49;;;;;;;8.50;6.50;;;;;;;;;;4999044;28;20219;-31
2023/01/08 19:31:17;;;;;;;11.13;6.70;;;;;;;;;;5007161;28;20225;-27
2023/01/08 19:33:44;;;;;;;9.90;6.63;;;;;;;;;;5012937;28;20235;-29
2023/01/08 19:36:14;;;;;;;8.03;6.33;;;;;;;;;;5005222;28;20227;-32
2023/01/08 19:38:41;;;;;;;11.60;7.60;;;;;;;;;;5004184;28;21054;-30
2023/01/08 19:43:40;;;;;;;10.27;6.80;;;;;;;;;;5012581;28;20227;-28
2023/01/08 19:43:57;;;;;;;8.30;6.27;;;;;;;;;;5004518;28;20211;-28
2023/01/08 19:46:25;;;;;;;9.67;6.40;;;;;;;;;;5013155;28;20207;-28
2023/01/08 19:48:52;;;;;;;9.93;7.27;;;;;;;;;;5015114;28;20211;-31
2023/01/08 19:51:19;;;;;;;9.67;6.80;;;;;;;;;;5008525;28;20223;-29
2023/01/08 19:53:46;;;;;;;8.87;7.97;;;;;;;;;;5010759;28;20200;-31
2023/01/08 19:56:15;;;;;;;9.60;7.53;;;;;;;;;;5012010;28;20227;-31
2023/01/08 19:58:43;;;;;;;8.30;6.70;;;;;;;;;;4998575;28;20215;-30
2023/01/08 20:01:10;;;;;;;11.40;6.77;;;;;;;;;;5011820;28;20227;-29
2023/01/08 20:03:38;;;;;;;8.57;6.73;;;;;;;;;;5011684;28;20215;-28
2023/01/08 20:06:09;;;;;;;9.03;6.53;;;;;;;;;;5007587;28;20219;-30
2023/01/08 20:08:36;;;;;;;11.87;7.40;;;;;;;;;;5008838;28;20214;-29
2023/01/08 20:11:07;;;;;;;10.30;6.93;;;;;;;;;;5010477;28;20227;-30
2023/01/08 20:13:36;;;;;;;9.93;7.23;;;;;;;;;;5006440;28;20208;-28
2023/01/08 20:16:03;;;;;;;8.60;6.40;;;;;;;;;;5006030;28;20223;-30
2023/01/08 20:18:30;;;;;;;8.97;7.13;;;;;;;;;;5010247;28;20214;-33
2023/01/08 20:21:02;;;;;;;7.97;6.80;;;;;;;;;;5008767;28;20325;-28
2023/01/08 20:23:30;;;;;;;10.57;7.07;;;;;;;;;;5005713;28;20297;-28
2023/01/08 20:26:00;;;;;;;13.87;7.50;;;;;;;;;;5010495;28;20407;-32
2023/01/08 20:28:27;;;;;;;10.07;6.83;;;;;;;;;;4999820;28;20211;-28
2023/01/08 20:30:56;;;;;;;8.87;6.50;;;;;;;;;;5003571;28;20229;-26
2023/01/08 20:33:23;;;;;;;11.17;6.37;;;;;;;;;;5003506;28;20207;-28
2023/01/08 20:35:51;;;;;;;10.47;6.77;;;;;;;;;;5009185;28;20215;-33
2023/01/08 20:38:18;;;;;;;10.27;7.43;;;;;;;;;;5009770;28;20535;-30
2023/01/08 20:40:45;;;;;;;9.47;5.83;;;;;;;;;;5003026;28;20206;-31
2023/01/08 20:43:12;;;;;;;12.50;7.27;;;;;;;;;;5004344;28;20299;-30
2023/01/08 20:45:40;;;;;;;10.30;6.80;;;;;;;;;;5004927;28;20207;-32
2023/01/08 20:48:09;;;;;;;8.40;6.37;;;;;;;;;;5010605;28;20212;-28
2023/01/08 20:50:37;;;;;;;9.93;7.17;;;;;;;;;;5004039;28;20218;-30
2023/01/08 20:53:04;;;;;;;7.87;6.47;;;;;;;;;;5004490;28;20211;-30
2023/01/08 20:55:31;;;;;;;11.23;6.93;;;;;;;;;;5010003;28;20234;-27
2023/01/08 20:57:58;;;;;;;9.33;7.43;;;;;;;;;;5004630;28;20218;-29
2023/01/08 21:00:25;;;;;;;7.37;5.87;;;;;;;;;;5000451;28;20206;-31
2023/01/08 21:02:52;;;;;;;10.10;6.50;;;;;;;;;;5010395;28;20231;-33
2023/01/08 21:05:21;;;;;;;9.07;6.10;;;;;;;;;;5001251;28;20218;-27
2023/01/08 21:07:48;;;;;;;9.87;6.20;;;;;;;;;;5005136;28;20208;-29
2023/01/08 21:10:15;;;;;;;9.83;6.57;;;;;;;;;;5009840;28;20210;-32
2023/01/08 21:12:42;;;;;;;9.33;7.47;;;;;;;;;;5005155;28;20234;-34
2023/01/08 21:15:10;;;;;;;9.67;7.23;;;;;;;;;;5000447;28;20210;-29
2023/01/08 21:17:37;;;;;;;7.53;5.90;;;;;;;;;;5009707;28;20208;-30
2023/01/08 21:20:05;;;;;;;9.43;8.40;;;;;;;;;;5003630;28;20214;-28
2023/01/08 21:22:33;;;;;;;10.07;7.27;;;;;;;;;;5001600;28;20227;-28
2023/01/08 21:25:00;;;;;;;10.70;6.93;;;;;;;;;;4999406;28;20210;-31
2023/01/08 21:27:27;;;;;;;13.37;6.97;;;;;;;;;;5005923;28;20199;-32
2023/01/08 21:29:55;;;;;;;10.93;7.23;;;;;;;;;;4995685;28;20214;-31
2023/01/08 21:32:22;;;;;;;9.07;6.87;;;;;;;;;;5009504;28;20235;-29
2023/01/08 21:34:49;;;;;;;9.27;6.93;;;;;;;;;;5008498;28;20214;-27
2023/01/08 21:37:16;;;;;;;9.77;6.87;;;;;;;;;;5002391;28;20219;-32
2023/01/08 21:39:45;;;;;;;9.87;7.40;;;;;;;;;;5004073;28;20211;-30
2023/01/08 21:47:41;;;;;;;10.67;8.00;;;;;;;;;;5008627;28;20312;-34
2023/01/08 21:50:09;;;;;;;11.13;8.80;;;;;;;;;;5008534;28;20584;-30
2023/01/08 21:55:22;;;;;;;10.87;7.40;;;;;;;;;;5007940;28;20214;-28